createdAt,value
2023-05-09T00:00:40.006Z,98135.75
2023-05-09T00:10:48.738Z,98134.44
2023-05-09T00:20:51.174Z,98126.53
2023-05-09T00:30:53.958Z,98129.00
2023-05-09T00:40:56.247Z,98120.47
2023-05-09T00:50:58.634Z,98123.00
2023-05-09T01:01:02.506Z,98108.16
2023-05-09T01:11:13.231Z,98095.31
2023-05-09T01:21:27.174Z,98091.72
2023-05-09T01:31:30.681Z,98088.38
2023-05-09T01:41:37.749Z,98092.91
2023-05-09T01:51:43.827Z,98088.03
2023-05-09T02:01:47.575Z,98076.84
2023-05-09T02:11:49.989Z,98064.19
2023-05-09T05:05:12.365Z,97990.41
2023-05-09T05:15:15.395Z,97987.47
2023-05-09T05:25:18.836Z,97967.97
2023-05-09T05:35:23.535Z,97961.41
2023-05-09T05:45:26.246Z,97959.66
2023-05-09T05:55:28.578Z,97951.66
2023-05-09T06:05:31.010Z,97949.97
2023-05-09T06:15:33.264Z,97932.69
2023-05-09T06:25:35.596Z,97936.31
2023-05-09T06:35:37.953Z,97907.72
2023-05-09T06:45:40.246Z,97897.06
2023-05-09T06:55:42.990Z,97895.44
2023-05-09T07:05:45.383Z,97885.06
2023-05-09T07:15:47.683Z,97868.16
2023-05-09T07:25:49.943Z,97874.72
2023-05-09T07:35:53.296Z,97839.00
2023-05-09T07:45:55.696Z,97839.63
2023-05-09T07:55:58.908Z,97799.69
2023-05-09T08:06:01.225Z,97800.38
2023-05-09T08:16:03.859Z,97792.31
2023-05-09T08:26:06.170Z,97790.78
2023-05-09T08:36:08.700Z,97790.84
2023-05-09T08:46:12.679Z,97772.50
2023-05-09T08:56:15.637Z,97757.47
2023-05-09T09:06:19.048Z,97752.69
2023-05-09T09:16:24.418Z,97745.16
2023-05-09T09:26:29.575Z,97744.22
2023-05-09T09:36:32.806Z,97731.97
2023-05-09T09:46:56.558Z,97727.69
2023-05-09T09:56:59.006Z,97707.28
2023-05-09T10:07:06.322Z,97701.94
2023-05-09T10:17:11.539Z,97689.47
2023-05-09T10:27:15.922Z,97689.81
2023-05-09T10:37:18.406Z,97680.22
2023-05-09T10:47:21.881Z,97666.91
2023-05-09T10:57:24.241Z,97654.16
2023-05-09T11:07:27.732Z,97653.22
2023-05-09T11:17:31.781Z,97633.72
2023-05-09T11:27:48.818Z,97605.00
2023-05-09T11:38:05.798Z,97600.94
2023-05-09T11:48:11.288Z,97574.19
2023-05-09T11:58:13.751Z,97568.84
2023-05-09T12:08:16.570Z,97551.13
2023-05-09T12:18:18.974Z,97544.00
2023-05-09T12:28:26.457Z,97528.97
2023-05-09T12:38:29.305Z,97521.97
2023-05-09T12:48:38.040Z,97513.91
2023-05-09T12:58:40.419Z,97497.81
2023-05-09T13:08:42.781Z,97468.19
2023-05-09T13:18:45.081Z,97458.63
2023-05-09T13:28:47.455Z,97449.22
2023-05-09T13:38:49.825Z,97453.63
2023-05-09T13:48:52.214Z,97414.94
2023-05-09T13:58:54.511Z,97417.50
2023-05-09T14:08:57.466Z,97415.41
2023-05-09T14:18:59.845Z,97394.47
2023-05-09T14:29:03.607Z,97392.19
2023-05-09T14:39:06.566Z,97392.91
2023-05-09T14:49:09.397Z,97372.44
2023-05-09T14:59:12.365Z,97370.22
2023-05-09T15:09:14.978Z,97361.78
2023-05-09T15:19:17.676Z,97360.66
2023-05-09T15:29:20.647Z,97353.56
2023-05-09T15:39:22.984Z,97342.44
2023-05-09T15:49:25.351Z,97327.41
2023-05-09T15:59:27.934Z,97329.13
2023-05-09T16:09:30.283Z,97306.16
2023-05-09T16:19:35.003Z,97305.41
2023-05-09T16:29:38.190Z,97293.97
2023-05-09T16:39:40.504Z,97299.56
2023-05-09T16:49:42.910Z,97291.13
2023-05-09T16:59:46.023Z,97288.00
2023-05-09T17:09:49.898Z,97272.59
2023-05-09T17:19:52.574Z,97264.56
2023-05-09T17:29:54.865Z,97272.97
2023-05-09T17:39:57.586Z,97272.69
2023-05-09T17:49:59.904Z,97281.25
2023-05-09T18:00:02.416Z,97294.19
2023-05-09T18:10:05.412Z,97287.00
2023-05-09T18:20:08.774Z,97302.44
2023-05-09T18:30:11.418Z,97299.31
2023-05-09T18:40:15.951Z,97316.50
2023-05-09T18:50:19.128Z,97311.69
2023-05-09T19:00:21.581Z,97303.44
2023-05-09T19:10:24.034Z,97308.66
2023-05-09T19:20:26.822Z,97296.75
2023-05-09T19:30:29.188Z,97288.25
2023-05-09T19:40:31.499Z,97273.28
2023-05-09T19:50:33.766Z,97286.25
2023-05-09T20:00:36.320Z,97263.38
2023-05-09T20:10:38.626Z,97241.19
2023-05-09T20:20:41.335Z,97223.66
2023-05-09T20:30:43.700Z,97210.91
2023-05-09T20:40:45.989Z,97198.56
2023-05-09T20:50:48.357Z,97187.59
2023-05-09T21:00:50.697Z,97162.84
2023-05-09T21:10:53.126Z,97154.16
2023-05-09T21:20:55.460Z,97136.66
2023-05-09T21:30:57.918Z,97131.59
2023-05-09T21:41:00.219Z,97130.63
2023-05-09T21:51:03.346Z,97118.63
2023-05-09T22:10:10.127Z,97111.78
2023-05-09T22:20:12.845Z,97105.88
2023-05-09T22:30:15.595Z,97067.22
2023-05-09T22:40:18.251Z,97063.41
2023-05-09T22:50:20.517Z,97061.50
2023-05-09T23:00:22.830Z,97057.88
2023-05-09T23:10:25.103Z,97047.06
2023-05-09T23:20:27.430Z,97044.69
2023-05-09T23:30:29.717Z,97037.41
2023-05-09T23:40:32.064Z,97018.44
2023-05-09T23:50:34.475Z,97015.94
